createdAt,value
2022-10-20T00:04:07.148Z,25.685
2022-10-20T00:19:09.252Z,25.051
2022-10-20T00:34:11.508Z,25.457
2022-10-20T00:49:13.905Z,26.866
2022-10-20T01:04:16.236Z,25.938
2022-10-20T01:19:18.572Z,25.647
2022-10-20T01:34:20.614Z,26.026
2022-10-20T01:49:22.532Z,27.064
2022-10-20T02:04:24.418Z,25.29
2022-10-20T02:19:26.346Z,26.446
2022-10-20T02:34:28.301Z,26.186
2022-10-20T02:49:30.248Z,25.6
2022-10-20T03:04:32.213Z,26.739
2022-10-20T03:19:34.174Z,25.708
2022-10-20T03:34:36.097Z,24.638
2022-10-20T03:49:38.020Z,26.073
2022-10-20T04:04:39.996Z,24.951
2022-10-20T04:19:42.147Z,24.55
2022-10-20T04:34:44.209Z,25.093
2022-10-20T04:49:46.155Z,24.208
2022-10-20T05:04:48.072Z,25.132
2022-10-20T05:19:50.237Z,24.628
2022-10-20T05:34:52.197Z,25.019
2022-10-20T05:49:54.117Z,26.125
2022-10-20T06:04:56.095Z,24.311
2022-10-20T06:19:58.066Z,24.432
2022-10-20T06:35:00.020Z,24.898
2022-10-20T06:50:01.911Z,25.313
2022-10-20T07:05:03.860Z,25.498
2022-10-20T07:20:05.797Z,25.209
2022-10-20T07:35:07.733Z,25.702
2022-10-20T07:50:09.669Z,25.71
2022-10-20T08:05:11.576Z,25.531
2022-10-20T08:20:17.633Z,25.34
2022-10-20T08:35:19.763Z,25.399
2022-10-20T08:50:21.711Z,25.382
2022-10-20T09:05:23.632Z,25.34
2022-10-20T09:20:25.646Z,25.222
2022-10-20T09:35:27.521Z,25.193
2022-10-20T09:50:29.485Z,25.454
2022-10-20T10:05:31.455Z,25.322
2022-10-20T10:20:33.341Z,25.337
2022-10-20T10:35:35.249Z,25.477
2022-10-20T10:50:37.302Z,25.548
2022-10-20T11:05:39.174Z,25.612
2022-10-20T11:20:41.057Z,25.404
2022-10-20T11:35:42.992Z,25.218
2022-10-20T11:50:44.899Z,25.292
2022-10-20T12:05:47.369Z,25.165
2022-10-20T12:20:49.313Z,25.083
2022-10-20T12:35:51.220Z,24.799
2022-10-20T12:50:53.126Z,25.594
2022-10-20T13:05:55.043Z,26.255
2022-10-20T13:20:57.288Z,26.262
2022-10-20T13:35:59.156Z,27.03
2022-10-20T13:51:01.024Z,27.677
2022-10-20T14:06:02.985Z,27.931
2022-10-20T14:21:05.164Z,28.679
2022-10-20T14:36:07.160Z,29.442
2022-10-20T14:51:09.065Z,29.266
2022-10-20T15:06:13.825Z,29.59
2022-10-20T15:21:18.799Z,29.711
2022-10-20T15:36:20.769Z,29.889
2022-10-20T15:51:22.689Z,30.087
2022-10-20T16:06:24.932Z,29.937
2022-10-20T16:21:26.898Z,30.662
2022-10-20T16:36:28.852Z,30.638
2022-10-20T16:51:30.787Z,30.02
2022-10-20T17:06:32.720Z,28.714
2022-10-20T17:21:34.663Z,28.889
2022-10-20T17:36:36.611Z,28.693
2022-10-20T17:51:38.563Z,28.614
2022-10-20T18:06:40.491Z,29.145
2022-10-20T18:21:42.369Z,29.252
2022-10-20T18:36:45.813Z,29.056
2022-10-20T18:51:47.967Z,28.621
2022-10-20T19:06:49.942Z,28.063
2022-10-20T19:21:51.863Z,28.427
2022-10-20T19:36:53.827Z,28.421
2022-10-20T19:51:55.773Z,28.757
2022-10-20T20:07:01.714Z,28.527
2022-10-20T20:22:04.203Z,29.347
2022-10-20T20:37:06.097Z,29.227
2022-10-20T20:52:08.006Z,28.053
2022-10-20T21:07:09.832Z,27.98
2022-10-20T21:22:11.796Z,28.005
2022-10-20T21:37:13.720Z,30.133
2022-10-20T21:52:15.746Z,29.248
2022-10-20T22:07:17.669Z,29.494
2022-10-20T22:22:19.621Z,28.913
2022-10-20T22:37:21.521Z,28.929
2022-10-20T22:52:23.511Z,29.007
2022-10-20T23:07:25.409Z,29.233
2022-10-20T23:22:27.348Z,28.592
2022-10-20T23:37:29.367Z,28.546
2022-10-20T23:52:31.355Z,29.01
